createdAt,value
2023-05-08T00:03:31.383Z,62.73
2023-05-08T00:05:59.298Z,61.80
2023-05-08T00:08:26.897Z,60.92
2023-05-08T00:10:54.356Z,60.94
2023-05-08T00:13:24.014Z,60.44
2023-05-08T00:15:51.895Z,60.10
2023-05-08T00:18:19.082Z,60.06
2023-05-08T00:20:46.853Z,59.72
2023-05-08T00:23:13.898Z,60.53
2023-05-08T00:25:41.657Z,59.92
2023-05-08T00:28:10.809Z,59.59
2023-05-08T00:30:38.570Z,59.41
2023-05-08T00:33:06.361Z,59.79
2023-05-08T00:35:33.811Z,59.38
2023-05-08T00:38:02.877Z,59.11
2023-05-08T00:40:31.048Z,59.33
2023-05-08T00:43:00.508Z,59.49
2023-05-08T00:45:35.010Z,59.83
2023-05-08T00:48:04.394Z,59.67
2023-05-08T00:50:33.093Z,59.23
2023-05-08T00:53:05.114Z,59.23
2023-05-08T00:55:33.412Z,59.74
2023-05-08T00:58:00.563Z,59.99
2023-05-08T01:00:29.461Z,59.92
2023-05-08T01:02:57.414Z,59.92
2023-05-08T01:05:30.502Z,60.81
2023-05-08T01:07:58.225Z,60.31
2023-05-08T01:10:34.916Z,60.13
2023-05-08T01:13:29.476Z,60.00
2023-05-08T01:16:20.538Z,60.48
2023-05-08T01:19:23.376Z,61.32
2023-05-08T01:22:16.393Z,61.07
2023-05-08T01:24:50.766Z,61.63
2023-05-08T01:27:46.398Z,61.18
2023-05-08T01:30:28.036Z,61.07
2023-05-08T01:33:08.233Z,61.09
2023-05-08T01:35:51.186Z,61.38
2023-05-08T01:38:52.493Z,61.99
2023-05-08T01:41:28.180Z,61.81
2023-05-08T01:44:16.828Z,61.09
2023-05-08T01:46:51.281Z,61.30
2023-05-08T01:49:26.837Z,60.57
2023-05-08T01:52:01.108Z,60.83
2023-05-08T01:54:34.454Z,60.66
2023-05-08T01:57:04.543Z,60.47
2023-05-08T01:59:35.192Z,61.07
2023-05-08T02:02:04.571Z,60.87
2023-05-08T02:04:37.288Z,61.04
2023-05-08T02:07:08.109Z,60.43
2023-05-08T02:09:35.762Z,61.56
2023-05-08T02:12:07.058Z,60.85
2023-05-08T02:14:36.424Z,60.85
2023-05-08T02:17:06.574Z,61.21
2023-05-08T02:19:36.538Z,61.01
2023-05-08T02:22:06.120Z,60.98
2023-05-08T02:24:35.846Z,60.26
2023-05-08T02:27:04.486Z,59.60
2023-05-08T02:29:32.733Z,59.50
2023-05-08T02:32:02.472Z,60.67
2023-05-08T02:34:31.616Z,60.41
2023-05-08T02:37:00.519Z,59.57
2023-05-08T02:39:31.291Z,59.57
2023-05-08T02:41:58.793Z,58.79
2023-05-08T02:44:26.235Z,59.02
2023-05-08T02:47:06.955Z,58.59
2023-05-08T02:49:46.847Z,58.74
2023-05-08T02:52:24.248Z,59.58
2023-05-08T02:55:16.035Z,59.05
2023-05-08T02:58:02.720Z,59.56
2023-05-08T03:00:34.033Z,60.47
2023-05-08T03:03:14.664Z,61.79
2023-05-08T03:05:50.224Z,60.31
2023-05-08T03:08:24.362Z,61.05
2023-05-08T03:10:54.259Z,61.06
2023-05-08T03:13:22.487Z,60.03
2023-05-08T03:16:03.715Z,58.40
2023-05-08T03:18:40.540Z,57.62
2023-05-08T03:21:13.352Z,58.20
2023-05-08T03:23:46.313Z,58.07
2023-05-08T03:26:22.133Z,59.82
2023-05-08T03:28:51.510Z,60.10
2023-05-08T03:31:24.216Z,60.59
2023-05-08T03:33:58.344Z,61.05
2023-05-08T03:36:29.123Z,61.40
2023-05-08T03:38:59.955Z,61.44
2023-05-08T03:41:28.082Z,60.65
2023-05-08T03:43:57.774Z,61.29
2023-05-08T03:46:27.499Z,60.83
2023-05-08T03:49:01.323Z,59.89
2023-05-08T03:51:32.681Z,60.91
2023-05-08T03:54:01.628Z,60.91
2023-05-08T03:56:32.956Z,60.20
2023-05-08T03:59:15.638Z,60.85
2023-05-08T04:01:56.266Z,61.40
2023-05-08T04:04:46.216Z,61.62
2023-05-08T04:07:32.286Z,60.77
2023-05-08T04:10:28.471Z,61.64
2023-05-08T04:13:08.575Z,61.64
2023-05-08T04:15:51.953Z,61.37
2023-05-08T04:18:29.367Z,61.40
2023-05-08T04:21:02.705Z,61.70
2023-05-08T04:23:35.083Z,62.23
2023-05-08T04:26:05.645Z,62.83
2023-05-08T04:28:35.506Z,61.95
2023-05-08T04:31:06.206Z,61.42
2023-05-08T04:33:35.978Z,61.40
2023-05-08T04:36:05.226Z,61.22
2023-05-08T04:38:39.966Z,60.91
2023-05-08T04:41:09.284Z,60.87
2023-05-08T04:43:38.935Z,60.90
2023-05-08T04:46:09.544Z,61.33
2023-05-08T04:48:37.485Z,60.93
2023-05-08T04:51:05.005Z,61.19
2023-05-08T04:53:33.527Z,61.30
2023-05-08T04:56:03.707Z,61.08
2023-05-08T04:58:30.925Z,60.69
2023-05-08T05:01:04.058Z,60.63
2023-05-08T05:03:33.834Z,60.90
2023-05-08T05:06:03.683Z,60.43
2023-05-08T05:08:32.603Z,59.54
2023-05-08T05:11:02.415Z,59.56
2023-05-08T05:13:31.850Z,59.17
2023-05-08T05:16:03.493Z,59.51
2023-05-08T05:18:32.592Z,58.83
2023-05-08T05:21:05.018Z,58.49
2023-05-08T05:23:33.537Z,57.62
2023-05-08T05:26:04.919Z,57.87
2023-05-08T05:28:36.142Z,57.89
2023-05-08T05:31:05.333Z,56.62
2023-05-08T05:33:34.094Z,56.84
2023-05-08T05:36:04.041Z,56.97
2023-05-08T05:38:32.975Z,56.78
2023-05-08T05:41:06.163Z,56.52
2023-05-08T05:43:34.113Z,55.65
2023-05-08T05:46:10.376Z,55.78
2023-05-08T05:48:44.101Z,55.59
2023-05-08T05:51:13.072Z,56.16
2023-05-08T05:53:45.370Z,55.29
2023-05-08T05:56:14.160Z,55.01
2023-05-08T05:58:47.787Z,55.07
2023-05-08T06:01:16.140Z,54.34
2023-05-08T06:03:45.321Z,54.58
2023-05-08T06:06:15.469Z,54.65
2023-05-08T06:08:46.101Z,54.00
2023-05-08T06:11:14.351Z,53.61
2023-05-08T06:13:42.467Z,53.89
2023-05-08T06:16:11.469Z,53.48
2023-05-08T06:18:42.443Z,52.35
2023-05-08T06:21:12.485Z,52.48
2023-05-08T06:23:44.037Z,51.80
2023-05-08T06:26:12.481Z,52.53
2023-05-08T06:28:43.850Z,53.04
2023-05-08T06:31:13.170Z,51.58
2023-05-08T06:33:41.609Z,52.12
2023-05-08T06:36:11.650Z,52.30
2023-05-08T06:38:39.864Z,51.00
2023-05-08T06:41:07.617Z,51.35
2023-05-08T06:43:35.524Z,49.85
2023-05-08T06:46:09.660Z,50.89
2023-05-08T06:48:41.993Z,50.48
2023-05-08T06:51:13.745Z,49.92
2023-05-08T06:53:45.681Z,51.87
2023-05-08T06:56:13.273Z,50.37
2023-05-08T06:58:41.651Z,48.89
2023-05-08T07:01:10.114Z,48.51
2023-05-08T07:03:42.136Z,48.21
2023-05-08T07:06:12.728Z,48.91
2023-05-08T07:08:41.289Z,47.45
2023-05-08T07:11:10.863Z,46.74
2023-05-08T07:13:39.013Z,47.57
2023-05-08T07:16:12.236Z,47.12
2023-05-08T07:18:45.411Z,47.22
2023-05-08T07:21:16.317Z,45.98
2023-05-08T07:23:45.347Z,45.73
2023-05-08T07:26:14.338Z,45.96
2023-05-08T07:28:52.116Z,45.83
2023-05-08T07:31:21.305Z,46.06
2023-05-08T07:33:54.639Z,45.71
2023-05-08T07:36:23.511Z,44.93
2023-05-08T07:38:50.975Z,45.51
2023-05-08T07:41:18.852Z,45.82
2023-05-08T07:43:46.501Z,44.40
2023-05-08T07:46:18.277Z,44.95
2023-05-08T07:48:46.079Z,44.94
2023-05-08T07:51:15.388Z,44.93
2023-05-08T07:53:44.964Z,43.37
2023-05-08T07:56:12.779Z,42.50
2023-05-08T07:58:43.098Z,42.26
2023-05-08T08:01:10.567Z,42.64
2023-05-08T08:03:38.208Z,42.32
2023-05-08T08:06:06.323Z,41.85
2023-05-08T08:08:34.589Z,41.79
2023-05-08T08:11:03.834Z,41.67
2023-05-08T08:13:36.185Z,41.45
2023-05-08T08:16:05.349Z,40.20
2023-05-08T08:18:38.621Z,39.06
2023-05-08T08:21:09.653Z,39.81
2023-05-08T08:23:37.869Z,40.57
2023-05-08T08:26:09.128Z,39.53
2023-05-08T08:28:36.882Z,38.96
2023-05-08T08:31:05.495Z,38.34
2023-05-08T08:33:32.903Z,38.69
2023-05-08T08:36:00.027Z,38.92
2023-05-08T08:38:31.275Z,39.77
2023-05-08T08:41:00.028Z,37.77
2023-05-08T08:43:30.452Z,38.28
2023-05-08T08:45:59.855Z,37.63
2023-05-08T08:48:31.226Z,38.00
2023-05-08T08:51:05.833Z,37.56
2023-05-08T08:53:44.361Z,37.17
2023-05-08T08:56:18.076Z,36.54
2023-05-08T08:58:52.114Z,36.44
2023-05-08T09:01:21.714Z,35.39
2023-05-08T09:03:52.722Z,34.66
2023-05-08T09:06:22.244Z,34.36
2023-05-08T09:08:55.208Z,35.21
2023-05-08T09:11:23.370Z,34.71
2023-05-08T09:13:51.883Z,34.92
2023-05-08T09:16:18.942Z,34.98
2023-05-08T09:18:53.322Z,34.95
2023-05-08T09:21:23.952Z,33.76
2023-05-08T09:24:06.298Z,33.35
2023-05-08T09:26:37.171Z,33.48
2023-05-08T09:29:11.954Z,33.15
2023-05-08T09:31:42.373Z,32.93
2023-05-08T09:34:30.496Z,34.18
2023-05-08T09:37:11.976Z,32.72
2023-05-08T09:39:43.747Z,31.71
2023-05-08T09:42:15.208Z,32.14
2023-05-08T09:44:51.407Z,32.25
2023-05-08T09:47:25.678Z,33.13
2023-05-08T09:50:09.509Z,32.41
2023-05-08T09:52:38.475Z,31.34
2023-05-08T09:55:11.551Z,31.62
2023-05-08T09:57:41.158Z,32.01
2023-05-08T10:00:11.705Z,31.95
2023-05-08T10:02:55.397Z,31.95
2023-05-08T10:05:28.228Z,30.70
2023-05-08T10:07:56.411Z,30.83
2023-05-08T10:10:31.132Z,30.85
2023-05-08T10:12:59.207Z,29.15
2023-05-08T10:15:34.568Z,29.17
2023-05-08T10:18:08.022Z,29.16
2023-05-08T10:20:42.603Z,30.73
2023-05-08T10:23:23.940Z,31.21
2023-05-08T10:26:02.247Z,30.96
2023-05-08T10:28:37.555Z,29.79
2023-05-08T10:31:08.368Z,28.33
2023-05-08T10:33:42.328Z,28.77
2023-05-08T10:36:13.684Z,29.76
2023-05-08T10:38:44.800Z,28.54
2023-05-08T10:41:20.436Z,29.35
2023-05-08T10:43:52.409Z,28.74
2023-05-08T10:46:30.830Z,28.99
2023-05-08T10:49:08.102Z,28.63
2023-05-08T10:51:57.800Z,28.43
2023-05-08T10:54:29.291Z,26.86
2023-05-08T10:57:11.907Z,27.06
2023-05-08T10:59:51.394Z,25.83
2023-05-08T11:02:38.198Z,27.78
2023-05-08T11:05:24.723Z,27.70
2023-05-08T11:07:57.946Z,28.32
2023-05-08T11:10:33.700Z,27.45
2023-05-08T11:13:01.885Z,27.48
2023-05-08T11:15:44.239Z,26.34
2023-05-08T11:18:12.436Z,25.48
2023-05-08T11:20:57.832Z,27.59
2023-05-08T11:23:36.919Z,26.88
2023-05-08T11:26:08.204Z,25.27
2023-05-08T11:28:41.359Z,26.16
2023-05-08T11:31:12.555Z,26.09
2023-05-08T11:33:41.952Z,26.25
2023-05-08T11:36:22.354Z,26.51
2023-05-08T11:39:13.015Z,25.87
2023-05-08T11:41:40.262Z,25.53
2023-05-08T11:44:22.466Z,25.89
2023-05-08T11:46:52.298Z,25.46
2023-05-08T11:49:29.001Z,26.17
2023-05-08T11:51:58.969Z,25.23
2023-05-08T11:54:30.600Z,25.39
2023-05-08T11:57:00.471Z,26.73
2023-05-08T11:59:28.851Z,25.50
2023-05-08T12:02:08.687Z,26.22
2023-05-08T12:04:48.254Z,25.13
2023-05-08T12:07:16.855Z,25.23
2023-05-08T12:09:49.238Z,25.88
2023-05-08T12:12:17.402Z,26.21
2023-05-08T12:14:49.848Z,26.12
2023-05-08T12:17:21.982Z,26.48
2023-05-08T12:19:54.915Z,27.19
2023-05-08T12:22:25.102Z,26.74
2023-05-08T12:24:55.068Z,26.71
2023-05-08T12:27:22.578Z,27.15
2023-05-08T12:29:52.796Z,27.54
2023-05-08T12:32:21.842Z,26.29
2023-05-08T12:34:49.792Z,26.13
2023-05-08T12:37:25.315Z,26.62
2023-05-08T12:39:56.248Z,25.57
2023-05-08T12:42:41.746Z,24.75
2023-05-08T12:45:10.422Z,25.45
2023-05-08T12:47:40.816Z,25.85
2023-05-08T12:50:12.747Z,26.00
2023-05-08T12:52:40.991Z,25.50
2023-05-08T12:55:29.372Z,25.01
2023-05-08T12:58:14.767Z,25.26
2023-05-08T13:00:49.659Z,24.51
2023-05-08T13:03:29.782Z,24.78
2023-05-08T13:05:59.446Z,25.24
2023-05-08T13:08:34.481Z,24.69
2023-05-08T13:11:04.331Z,26.04
2023-05-08T13:13:34.087Z,25.31
2023-05-08T13:16:06.557Z,24.46
2023-05-08T13:18:36.904Z,24.26
2023-05-08T13:21:05.169Z,25.69
2023-05-08T13:23:35.018Z,24.83
2023-05-08T13:26:03.916Z,23.25
2023-05-08T13:28:31.542Z,24.82
2023-05-08T13:31:00.159Z,24.53
2023-05-08T13:33:31.930Z,24.95
2023-05-08T13:36:00.740Z,24.33
2023-05-08T13:38:28.769Z,24.14
2023-05-08T13:40:56.993Z,24.25
2023-05-08T13:43:29.473Z,24.09
2023-05-08T13:45:56.363Z,24.34
2023-05-08T13:48:24.037Z,24.05
2023-05-08T13:50:52.090Z,24.20
2023-05-08T13:53:20.181Z,25.47
2023-05-08T13:55:47.575Z,25.77
2023-05-08T13:58:15.038Z,25.16
2023-05-08T14:00:42.637Z,24.31
2023-05-08T14:03:10.171Z,23.64
2023-05-08T14:05:37.306Z,23.40
2023-05-08T14:08:05.251Z,23.73
2023-05-08T14:10:32.778Z,24.00
2023-05-08T14:13:00.620Z,23.49
2023-05-08T14:15:36.468Z,24.28
2023-05-08T14:18:05.207Z,23.42
2023-05-08T14:20:32.558Z,23.76
2023-05-08T14:23:00.341Z,24.58
2023-05-08T14:25:28.376Z,25.68
2023-05-08T14:27:56.131Z,24.57
2023-05-08T14:30:23.313Z,23.12
2023-05-08T14:32:51.109Z,24.19
2023-05-08T14:35:18.470Z,24.21
2023-05-08T14:37:48.518Z,24.15
2023-05-08T14:40:15.922Z,23.96
2023-05-08T14:42:44.901Z,24.01
2023-05-08T14:45:12.824Z,24.07
2023-05-08T14:47:40.766Z,23.26
2023-05-08T14:50:12.685Z,23.07
2023-05-08T14:52:40.402Z,24.12
2023-05-08T14:55:08.843Z,22.61
2023-05-08T14:57:36.795Z,23.37
2023-05-08T15:00:08.582Z,23.28
2023-05-08T15:02:35.935Z,23.12
2023-05-08T15:05:08.255Z,22.02
2023-05-08T15:07:40.737Z,22.26
2023-05-08T15:10:10.157Z,21.41
2023-05-08T15:12:38.058Z,22.59
2023-05-08T15:15:06.568Z,21.88
2023-05-08T15:17:36.782Z,22.18
2023-05-08T15:20:06.530Z,21.42
2023-05-08T15:22:38.924Z,21.65
2023-05-08T15:25:07.504Z,21.24
2023-05-08T15:27:35.662Z,21.33
2023-05-08T15:30:04.034Z,21.00
2023-05-08T15:32:32.370Z,21.24
2023-05-08T15:35:00.264Z,20.74
2023-05-08T15:37:28.644Z,21.50
2023-05-08T15:39:56.765Z,21.59
2023-05-08T15:42:27.418Z,21.15
2023-05-08T15:44:59.215Z,20.38
2023-05-08T15:47:27.864Z,20.19
2023-05-08T15:49:56.198Z,20.65
2023-05-08T15:52:24.857Z,20.21
2023-05-08T15:54:52.293Z,20.07
2023-05-08T15:57:20.256Z,20.14
2023-05-08T15:59:48.359Z,21.30
2023-05-08T16:02:16.017Z,21.23
2023-05-08T16:04:44.109Z,21.32
2023-05-08T16:07:12.177Z,21.65
2023-05-08T16:09:40.036Z,20.77
2023-05-08T16:12:08.208Z,21.30
2023-05-08T16:14:36.690Z,21.49
2023-05-08T16:17:04.705Z,21.79
2023-05-08T16:19:38.186Z,21.78
2023-05-08T16:22:07.104Z,21.56
2023-05-08T16:24:34.295Z,21.54
2023-05-08T16:27:02.409Z,21.10
2023-05-08T16:29:30.213Z,20.99
2023-05-08T16:31:58.073Z,21.35
2023-05-08T16:34:26.455Z,21.41
2023-05-08T16:36:54.134Z,21.26
2023-05-08T16:39:25.677Z,21.95
2023-05-08T16:41:53.324Z,25.52
2023-05-08T16:44:21.870Z,27.75
2023-05-08T16:46:49.673Z,27.74
2023-05-08T16:49:17.318Z,28.32
2023-05-08T16:51:45.624Z,28.84
2023-05-08T16:54:13.690Z,29.08
2023-05-08T16:56:42.680Z,29.67
2023-05-08T16:59:10.673Z,29.74
2023-05-08T17:01:44.593Z,29.89
2023-05-08T17:04:12.916Z,30.10
2023-05-08T17:06:41.282Z,30.69
2023-05-08T17:09:10.083Z,30.72
2023-05-08T17:11:41.676Z,30.27
2023-05-08T17:14:10.383Z,30.95
2023-05-08T17:16:42.594Z,31.02
2023-05-08T17:19:11.563Z,31.10
2023-05-08T17:21:47.980Z,30.84
2023-05-08T17:24:17.507Z,31.24
2023-05-08T17:26:49.990Z,31.63
2023-05-08T17:29:18.483Z,31.93
2023-05-08T17:31:47.407Z,32.06
2023-05-08T17:34:16.647Z,32.26
2023-05-08T17:36:44.972Z,32.36
2023-05-08T17:39:13.355Z,32.77
2023-05-08T17:41:41.683Z,33.41
2023-05-08T17:44:12.886Z,33.27
2023-05-08T17:46:41.948Z,33.79
2023-05-08T17:49:19.577Z,34.37
2023-05-08T17:51:49.248Z,34.50
2023-05-08T17:54:17.621Z,34.90
2023-05-08T17:56:57.840Z,34.97
2023-05-08T17:59:27.755Z,35.14
2023-05-08T18:01:56.325Z,35.71
2023-05-08T18:04:31.767Z,35.33
2023-05-08T18:07:02.294Z,35.77
2023-05-08T18:09:31.510Z,35.91
2023-05-08T18:12:03.358Z,36.23
2023-05-08T18:14:33.340Z,35.78
2023-05-08T18:17:02.796Z,35.98
2023-05-08T18:19:34.842Z,35.82
2023-05-08T18:22:05.481Z,36.02
2023-05-08T18:24:37.063Z,36.01
2023-05-08T18:27:07.922Z,36.18
2023-05-08T18:29:38.788Z,36.00
2023-05-08T18:32:13.835Z,36.33
2023-05-08T18:34:45.520Z,36.69
2023-05-08T18:37:13.891Z,37.52
2023-05-08T18:39:43.428Z,37.08
2023-05-08T18:42:15.066Z,37.50
2023-05-08T18:44:45.927Z,37.32
2023-05-08T18:47:14.835Z,37.62
2023-05-08T18:49:47.324Z,37.66
2023-05-08T18:52:17.690Z,37.97
2023-05-08T18:54:47.075Z,38.37
2023-05-08T18:57:16.851Z,37.84
2023-05-08T18:59:45.316Z,38.36
2023-05-08T19:02:14.469Z,38.16
2023-05-08T19:04:43.664Z,38.47
2023-05-08T19:07:12.630Z,38.32
2023-05-08T19:09:44.223Z,38.45
2023-05-08T19:12:15.660Z,39.52
2023-05-08T19:14:46.524Z,39.37
2023-05-08T19:17:14.678Z,39.79
2023-05-08T19:19:46.907Z,39.56
2023-05-08T19:22:15.943Z,39.92
2023-05-08T19:24:48.786Z,40.40
2023-05-08T19:27:18.037Z,40.23
2023-05-08T19:29:46.783Z,41.04
2023-05-08T19:32:15.851Z,40.82
2023-05-08T19:34:48.047Z,40.79
2023-05-08T19:37:16.586Z,41.06
2023-05-08T19:39:47.391Z,41.25
2023-05-08T19:42:18.625Z,41.15
2023-05-08T19:44:48.888Z,41.87
2023-05-08T19:47:22.299Z,41.56
2023-05-08T19:49:51.303Z,42.04
2023-05-08T19:52:21.497Z,41.93
2023-05-08T19:54:50.958Z,42.37
2023-05-08T19:57:24.000Z,42.13
2023-05-08T19:59:53.064Z,42.35
2023-05-08T20:02:21.810Z,42.25
2023-05-08T20:05:14.575Z,42.59
2023-05-08T20:07:38.522Z,42.36
2023-05-08T20:10:07.412Z,42.53
2023-05-08T20:12:37.903Z,42.90
2023-05-08T20:15:06.995Z,43.34
2023-05-08T20:17:34.598Z,43.00
2023-05-08T20:20:03.824Z,43.46
2023-05-08T20:22:31.442Z,43.52
2023-05-08T20:25:00.494Z,43.67
2023-05-08T20:27:30.328Z,43.99
2023-05-08T20:30:03.156Z,44.66
2023-05-08T20:32:31.478Z,44.20
2023-05-08T20:35:02.690Z,44.46
2023-05-08T20:37:31.666Z,44.30
2023-05-08T20:40:00.459Z,43.63
2023-05-08T20:42:31.315Z,43.63
2023-05-08T20:45:01.944Z,44.10
2023-05-08T20:47:34.232Z,44.10
2023-05-08T20:50:05.305Z,43.21
2023-05-08T20:52:38.459Z,43.53
2023-05-08T20:55:09.324Z,43.39
2023-05-08T20:57:40.435Z,43.09
2023-05-08T21:00:13.249Z,42.85
2023-05-08T21:02:46.965Z,43.15
2023-05-08T21:05:19.181Z,43.29
2023-05-08T21:07:47.670Z,43.03
2023-05-08T21:10:16.915Z,43.08
2023-05-08T21:12:47.269Z,43.17
2023-05-08T21:15:16.287Z,43.19
2023-05-08T21:17:46.909Z,42.83
2023-05-08T21:20:18.433Z,42.99
2023-05-08T21:22:49.929Z,43.20
2023-05-08T21:25:33.839Z,43.20
2023-05-08T21:28:06.712Z,44.10
2023-05-08T21:30:38.479Z,44.58
2023-05-08T21:33:14.289Z,43.83
2023-05-08T21:35:44.150Z,44.16
2023-05-08T21:38:12.609Z,44.81
2023-05-08T21:40:46.225Z,45.67
2023-05-08T21:43:14.414Z,46.02
2023-05-08T21:45:48.169Z,45.47
2023-05-08T21:48:19.445Z,45.66
2023-05-08T21:50:54.720Z,47.50
2023-05-08T21:53:26.472Z,46.16
2023-05-08T21:56:03.740Z,46.28
2023-05-08T21:58:37.962Z,46.04
2023-05-08T22:01:09.784Z,45.71
2023-05-08T22:03:38.582Z,47.25
2023-05-08T22:06:08.123Z,47.56
2023-05-08T22:08:39.626Z,48.16
2023-05-08T22:11:08.584Z,48.58
2023-05-08T22:13:37.451Z,47.95
2023-05-08T22:16:10.643Z,48.87
2023-05-08T22:18:42.474Z,47.85
2023-05-08T22:21:14.551Z,48.15
2023-05-08T22:23:43.188Z,48.31
2023-05-08T22:26:12.150Z,48.31
2023-05-08T22:28:41.038Z,50.11
2023-05-08T22:31:09.808Z,48.89
2023-05-08T22:33:37.442Z,49.96
2023-05-08T22:36:05.977Z,50.00
2023-05-08T22:38:39.954Z,50.22
2023-05-08T22:41:09.139Z,50.00
2023-05-08T22:43:38.411Z,50.29
2023-05-08T22:46:06.563Z,49.77
2023-05-08T22:48:35.160Z,49.60
2023-05-08T22:51:03.649Z,49.50
2023-05-08T22:53:32.610Z,49.61
2023-05-08T22:56:00.902Z,48.62
2023-05-08T22:58:31.521Z,48.60
2023-05-08T23:01:00.233Z,48.29
2023-05-08T23:03:35.395Z,47.63
2023-05-08T23:06:03.728Z,47.61
2023-05-08T23:08:32.416Z,47.74
2023-05-08T23:11:00.278Z,47.73
2023-05-08T23:13:32.168Z,48.47
2023-05-08T23:16:00.389Z,48.16
2023-05-08T23:18:34.572Z,47.08
2023-05-08T23:21:08.090Z,46.95
2023-05-08T23:23:35.678Z,49.26
2023-05-08T23:26:05.658Z,48.20
2023-05-08T23:28:37.185Z,48.00
2023-05-08T23:31:05.111Z,48.23
2023-05-08T23:33:32.736Z,48.37
2023-05-08T23:36:01.150Z,48.70
2023-05-08T23:38:29.110Z,48.14
2023-05-08T23:40:57.136Z,48.01
2023-05-08T23:43:28.071Z,48.12
2023-05-08T23:45:56.289Z,48.57
2023-05-08T23:48:25.978Z,49.40
2023-05-08T23:50:53.812Z,49.14
2023-05-08T23:53:22.320Z,48.38
2023-05-08T23:55:51.043Z,47.86
2023-05-08T23:58:21.893Z,48.46
